Time;durP1;ratioP1;P1;durP2;ratioP2;P2;SDS_P1;SDS_P2;PMS_P1;PMS_P2;Temp;Humidity;BMP_temperature;BMP_pressure;BME280_temperature;BME280_humidity;BME280_pressure;Samples;Min_cycle;Max_cycle;Signal;HPM_P1;HPM_P2
2023/08/03 00:00:07;;;;;;;2.95;1.48;;;15.80;99.90;;;;;;5124267;27;20111;-84
2023/08/03 00:02:34;;;;;;;3.33;1.45;;;15.80;99.90;;;;;;5113927;27;20078;-83
2023/08/03 00:05:01;;;;;;;2.70;1.30;;;15.90;99.90;;;;;;5086314;27;20051;-83
2023/08/03 00:07:27;;;;;;;1.67;1.17;;;15.90;99.90;;;;;;5093071;27;20123;-83
2023/08/03 00:09:53;;;;;;;2.90;1.33;;;15.90;99.90;;;;;;5123788;27;20127;-83
2023/08/03 00:12:18;;;;;;;2.33;1.17;;;15.90;99.90;;;;;;5126253;27;20034;-84
2023/08/03 00:14:45;;;;;;;2.17;1.10;;;16.00;99.90;;;;;;5103075;27;20040;-84
2023/08/03 00:17:10;;;;;;;2.65;1.50;;;16.00;99.90;;;;;;5105377;27;20587;-84
2023/08/03 00:19:36;;;;;;;3.30;1.45;;;16.10;99.90;;;;;;5085547;27;20074;-85
2023/08/03 00:22:01;;;;;;;3.65;1.98;;;16.10;99.90;;;;;;5098057;27;20043;-84
2023/08/03 00:24:27;;;;;;;3.33;1.23;;;16.10;99.90;;;;;;5097739;27;20399;-85
2023/08/03 00:26:53;;;;;;;2.72;1.50;;;16.20;99.90;;;;;;5091725;27;20118;-85
2023/08/03 00:29:18;;;;;;;3.72;1.70;;;16.20;99.90;;;;;;5087512;27;20039;-84
2023/08/03 00:31:44;;;;;;;3.85;1.58;;;16.20;99.90;;;;;;5093640;27;20047;-84
2023/08/03 00:34:09;;;;;;;2.65;1.50;;;16.20;99.90;;;;;;5127510;27;20027;-84
2023/08/03 00:36:35;;;;;;;2.97;1.55;;;16.20;99.90;;;;;;5099697;27;20537;-84
2023/08/03 00:39:00;;;;;;;1.92;1.30;;;16.20;99.90;;;;;;5116626;27;20103;-84
2023/08/03 00:41:27;;;;;;;4.43;1.77;;;16.20;99.90;;;;;;5117886;27;20107;-84
2023/08/03 00:43:52;;;;;;;3.13;1.42;;;16.20;99.90;;;;;;5115670;27;20094;-84
2023/08/03 00:46:18;;;;;;;3.85;1.55;;;16.20;99.90;;;;;;5102271;27;20071;-85
2023/08/03 00:48:44;;;;;;;3.22;1.55;;;16.20;99.90;;;;;;5105510;27;20080;-85
2023/08/03 00:51:09;;;;;;;1.75;1.40;;;16.30;99.90;;;;;;5102766;27;20322;-85
2023/08/03 00:53:35;;;;;;;5.35;1.65;;;16.20;99.90;;;;;;5101596;27;20043;-84
2023/08/03 00:56:00;;;;;;;2.88;1.83;;;16.20;99.90;;;;;;5109171;27;20046;-85
2023/08/03 00:58:26;;;;;;;3.63;1.70;;;16.20;99.90;;;;;;5109226;27;20042;-84
2023/08/03 01:00:52;;;;;;;2.03;1.33;;;16.30;99.90;;;;;;5101270;27;20054;-84
2023/08/03 01:03:18;;;;;;;4.28;1.55;;;16.30;99.90;;;;;;5102505;27;20035;-84
2023/08/03 01:05:43;;;;;;;2.78;1.80;;;16.20;99.90;;;;;;5118538;27;20471;-83
2023/08/03 01:08:09;;;;;;;3.22;1.70;;;16.20;99.90;;;;;;5100326;27;20047;-84
2023/08/03 01:10:35;;;;;;;3.30;1.50;;;16.20;99.90;;;;;;5110498;27;20031;-84
2023/08/03 01:13:01;;;;;;;4.32;1.63;;;16.20;99.90;;;;;;5102522;27;20091;-84
2023/08/03 01:15:27;;;;;;;4.47;1.40;;;16.20;99.90;;;;;;5103080;27;20043;-84
2023/08/03 01:17:52;;;;;;;2.10;1.40;;;16.30;99.90;;;;;;5095394;27;20453;-84
2023/08/03 01:20:19;;;;;;;2.33;1.48;;;16.30;99.90;;;;;;5100120;27;20534;-84
2023/08/03 01:22:45;;;;;;;2.00;1.17;;;16.20;99.90;;;;;;5078820;27;20541;-84
2023/08/03 01:25:11;;;;;;;4.47;1.77;;;16.20;99.90;;;;;;5130197;27;20121;-85
2023/08/03 01:27:37;;;;;;;1.50;1.25;;;16.30;99.90;;;;;;5119788;27;20035;-84
2023/08/03 01:30:04;;;;;;;9.57;1.95;;;16.30;99.90;;;;;;5086657;27;20047;-84
2023/08/03 01:32:31;;;;;;;3.05;1.40;;;16.30;99.90;;;;;;5120860;27;20161;-84
2023/08/03 01:34:57;;;;;;;2.50;1.23;;;16.30;99.90;;;;;;5103202;27;20043;-84
2023/08/03 01:37:26;;;;;;;3.75;1.20;;;16.30;99.90;;;;;;5099319;27;20038;-84
2023/08/03 01:39:51;;;;;;;2.03;1.00;;;16.30;99.90;;;;;;5117320;27;20142;-85
2023/08/03 01:42:17;;;;;;;1.45;1.00;;;16.30;99.90;;;;;;5108623;27;20130;-84
2023/08/03 01:44:43;;;;;;;1.65;1.05;;;16.30;99.90;;;;;;5099731;27;20070;-84
2023/08/03 01:47:09;;;;;;;2.58;1.10;;;16.30;99.90;;;;;;5090172;27;20316;-84
2023/08/03 01:49:35;;;;;;;1.35;0.85;;;16.30;99.90;;;;;;5119303;27;20035;-85
2023/08/03 01:52:01;;;;;;;1.13;0.80;;;16.20;99.90;;;;;;5093939;27;20041;-84
2023/08/03 01:54:26;;;;;;;0.60;0.60;;;16.30;99.90;;;;;;5099041;27;20039;-85
2023/08/03 01:56:55;;;;;;;0.85;0.77;;;16.30;99.90;;;;;;5092674;27;20475;-84
2023/08/03 01:59:20;;;;;;;1.05;0.50;;;16.20;99.90;;;;;;5129035;27;20031;-84
2023/08/03 02:01:46;;;;;;;0.77;0.60;;;16.30;99.90;;;;;;5101659;27;20031;-84
2023/08/03 02:04:14;;;;;;;3.17;0.60;;;16.30;99.90;;;;;;5091691;27;20048;-83
2023/08/03 02:06:40;;;;;;;0.60;0.55;;;16.30;99.90;;;;;;5113706;27;20028;-83
2023/08/03 02:09:05;;;;;;;1.23;0.57;;;16.30;99.90;;;;;;5118542;27;20397;-84
2023/08/03 02:11:33;;;;;;;1.17;0.70;;;16.40;99.90;;;;;;5129223;27;20448;-84
2023/08/03 02:13:59;;;;;;;1.50;1.05;;;16.40;99.90;;;;;;5090361;27;20042;-84
2023/08/03 02:16:25;;;;;;;1.35;0.75;;;16.40;99.90;;;;;;5117349;27;20047;-84
2023/08/03 02:18:53;;;;;;;1.65;0.88;;;16.30;99.90;;;;;;5107353;27;20106;-83
2023/08/03 02:21:19;;;;;;;1.05;0.95;;;16.30;99.90;;;;;;5105882;27;20056;-83
2023/08/03 02:23:44;;;;;;;1.23;0.80;;;16.40;99.90;;;;;;5089574;27;20167;-83
2023/08/03 02:26:10;;;;;;;1.27;0.90;;;16.30;99.90;;;;;;5085844;27;20114;-84
2023/08/03 02:28:35;;;;;;;2.40;1.38;;;16.30;99.90;;;;;;5098497;27;20031;-83
2023/08/03 02:31:01;;;;;;;2.55;1.00;;;16.40;99.90;;;;;;5097731;27;20036;-84
2023/08/03 02:33:27;;;;;;;1.67;1.00;;;16.40;99.90;;;;;;5103056;27;20113;-84
2023/08/03 02:35:55;;;;;;;1.55;1.05;;;16.40;99.90;;;;;;5103942;27;20035;-84
2023/08/03 02:38:21;;;;;;;1.15;0.77;;;16.40;99.90;;;;;;5089956;27;20047;-83
2023/08/03 02:40:47;;;;;;;2.25;1.10;;;16.40;99.90;;;;;;5090531;27;20370;-84
2023/08/03 02:43:12;;;;;;;1.65;1.10;;;16.40;99.90;;;;;;5114633;27;20471;-84
2023/08/03 02:45:38;;;;;;;1.35;1.00;;;16.40;99.90;;;;;;5102093;27;20063;-84
2023/08/03 02:48:04;;;;;;;1.50;0.95;;;16.40;99.90;;;;;;5085476;27;20035;-83
2023/08/03 02:50:30;;;;;;;2.75;0.93;;;16.40;99.90;;;;;;5100247;27;20038;-84
2023/08/03 02:52:55;;;;;;;1.52;1.10;;;16.40;99.90;;;;;;5081942;27;20589;-84
2023/08/03 02:55:21;;;;;;;4.88;1.50;;;16.40;99.90;;;;;;5100063;27;20442;-84
2023/08/03 02:57:46;;;;;;;1.63;1.17;;;16.40;99.90;;;;;;5118728;27;20071;-84
2023/08/03 03:00:13;;;;;;;1.95;1.20;;;16.40;99.90;;;;;;5116183;27;20034;-84
2023/08/03 03:02:38;;;;;;;2.08;1.67;;;16.40;99.90;;;;;;5118910;27;20090;-83
2023/08/03 03:05:04;;;;;;;2.20;1.55;;;16.40;99.90;;;;;;5134031;27;20091;-83
2023/08/03 03:07:33;;;;;;;2.67;1.65;;;16.40;99.90;;;;;;5085864;27;20442;-83
2023/08/03 03:09:59;;;;;;;2.38;1.70;;;16.40;99.90;;;;;;5097556;27;21108;-84
2023/08/03 03:12:25;;;;;;;5.68;1.70;;;16.40;99.90;;;;;;5107732;27;20384;-84
2023/08/03 03:14:50;;;;;;;3.60;1.60;;;16.40;99.90;;;;;;5130241;27;20043;-84
2023/08/03 03:17:19;;;;;;;2.83;1.67;;;16.40;99.90;;;;;;5105216;27;20549;-84
2023/08/03 03:19:44;;;;;;;2.78;1.90;;;16.40;99.90;;;;;;5103189;27;20072;-84
2023/08/03 03:22:11;;;;;;;3.00;1.85;;;16.40;99.90;;;;;;5085947;27;20031;-83
2023/08/03 03:24:36;;;;;;;6.30;2.10;;;16.40;99.90;;;;;;5091181;27;20038;-84
2023/08/03 03:27:02;;;;;;;5.45;2.20;;;16.40;99.90;;;;;;5132936;27;20393;-84
2023/08/03 03:29:28;;;;;;;2.30;2.10;;;16.50;99.90;;;;;;5106264;27;20215;-84
2023/08/03 03:31:53;;;;;;;2.90;2.35;;;16.40;99.90;;;;;;5110905;27;20068;-84
2023/08/03 03:34:19;;;;;;;3.28;2.53;;;16.40;99.90;;;;;;5102724;27;20127;-84
2023/08/03 03:36:44;;;;;;;3.03;2.28;;;16.40;99.90;;;;;;5110183;27;20055;-83
2023/08/03 03:39:10;;;;;;;3.38;2.45;;;16.50;99.90;;;;;;5087029;27;20449;-84
2023/08/03 03:41:36;;;;;;;2.97;2.20;;;16.50;99.90;;;;;;5109602;27;20039;-84
2023/08/03 03:44:01;;;;;;;3.85;2.70;;;16.50;99.90;;;;;;5087645;27;20063;-84
2023/08/03 03:46:27;;;;;;;3.92;2.45;;;16.50;99.90;;;;;;5104422;27;20126;-84
2023/08/03 03:48:53;;;;;;;5.15;2.70;;;16.50;99.90;;;;;;5098853;27;20048;-84
2023/08/03 03:51:20;;;;;;;4.55;3.00;;;16.50;99.90;;;;;;5092437;27;20049;-84
2023/08/03 03:53:45;;;;;;;5.95;2.90;;;16.50;99.90;;;;;;5094555;27;20050;-84
2023/08/03 03:56:11;;;;;;;5.00;3.10;;;16.50;99.90;;;;;;5094591;27;20031;-83
2023/08/03 03:58:36;;;;;;;4.25;3.10;;;16.50;99.90;;;;;;5104384;27;20126;-84
2023/08/03 04:01:02;;;;;;;5.13;3.67;;;16.50;99.90;;;;;;5079996;28;20043;-83
2023/08/03 04:03:28;;;;;;;7.15;4.18;;;16.50;99.90;;;;;;5088305;27;20443;-83
2023/08/03 04:05:54;;;;;;;7.93;4.70;;;16.50;99.90;;;;;;5101481;27;20261;-83
2023/08/03 04:08:19;;;;;;;14.68;5.57;;;16.40;99.90;;;;;;5105799;27;20035;-84
2023/08/03 04:10:45;;;;;;;8.30;4.50;;;16.40;99.90;;;;;;5112262;27;20665;-83
2023/08/03 04:13:11;;;;;;;7.63;4.40;;;16.40;99.90;;;;;;5094483;27;20034;-83
2023/08/03 04:15:36;;;;;;;15.90;5.45;;;16.30;99.90;;;;;;5096476;27;20048;-83
2023/08/03 04:18:02;;;;;;;8.82;5.30;;;16.40;99.90;;;;;;5084668;27;20058;-84
2023/08/03 04:20:28;;;;;;;9.07;5.20;;;16.40;99.90;;;;;;5095044;27;20077;-83
2023/08/03 04:22:53;;;;;;;8.23;5.25;;;16.30;99.90;;;;;;5096212;27;20032;-83
2023/08/03 04:25:19;;;;;;;9.82;5.15;;;16.30;99.90;;;;;;5098679;27;20074;-83
2023/08/03 04:27:45;;;;;;;7.22;5.18;;;16.30;99.90;;;;;;5104358;27;20495;-83
2023/08/03 04:30:11;;;;;;;9.65;5.03;;;16.30;99.90;;;;;;5106588;27;20031;-83
2023/08/03 04:32:37;;;;;;;9.90;5.85;;;16.30;99.90;;;;;;5098734;27;20039;-83
2023/08/03 04:35:03;;;;;;;10.23;5.32;;;16.40;99.90;;;;;;5083768;28;20118;-83
2023/08/03 04:37:29;;;;;;;9.70;5.88;;;16.40;99.90;;;;;;5081304;28;20453;-85
2023/08/03 04:39:55;;;;;;;9.75;5.40;;;16.50;99.90;;;;;;5086752;28;20040;-85
2023/08/03 04:42:21;;;;;;;9.93;5.05;;;16.50;99.90;;;;;;5092238;28;20027;-84
2023/08/03 04:44:47;;;;;;;8.20;5.05;;;16.60;99.90;;;;;;5106899;27;20504;-85
2023/08/03 04:47:13;;;;;;;6.65;4.70;;;16.60;99.90;;;;;;5095430;27;20050;-84
2023/08/03 04:49:39;;;;;;;8.30;4.95;;;16.60;99.90;;;;;;5124094;27;20043;-84
2023/08/03 04:52:05;;;;;;;14.10;5.15;;;16.70;99.90;;;;;;5116025;27;20406;-85
2023/08/03 04:54:31;;;;;;;10.65;4.60;;;16.70;99.90;;;;;;5086128;27;20115;-84
2023/08/03 04:56:56;;;;;;;9.02;4.10;;;16.70;99.90;;;;;;5109791;27;20038;-84
2023/08/03 04:59:22;;;;;;;5.82;3.42;;;16.70;99.90;;;;;;5098051;27;20039;-84
2023/08/03 05:01:48;;;;;;;5.13;3.28;;;16.60;99.90;;;;;;5088120;27;20039;-84
2023/08/03 05:04:13;;;;;;;8.93;3.58;;;16.60;99.90;;;;;;5098444;27;20066;-85
2023/08/03 05:06:39;;;;;;;5.95;3.40;;;16.60;99.90;;;;;;5099504;27;20109;-86
2023/08/03 05:09:05;;;;;;;5.43;3.03;;;16.60;99.90;;;;;;5095481;27;20098;-85
2023/08/03 05:11:30;;;;;;;7.28;3.00;;;16.60;99.90;;;;;;5091367;27;20043;-84
2023/08/03 05:13:56;;;;;;;5.68;3.08;;;16.60;99.90;;;;;;5087928;27;20108;-85
2023/08/03 05:16:26;;;;;;;5.90;2.70;;;16.60;99.90;;;;;;5102888;27;20063;-84
2023/08/03 05:18:52;;;;;;;7.55;3.15;;;16.60;99.90;;;;;;5117889;27;20039;-84
2023/08/03 05:21:18;;;;;;;5.75;2.72;;;16.60;99.90;;;;;;5088932;27;20381;-85
2023/08/03 05:23:47;;;;;;;4.15;2.20;;;16.60;99.90;;;;;;5104759;27;20035;-85
2023/08/03 05:26:13;;;;;;;6.10;2.38;;;16.60;99.90;;;;;;5107624;27;20402;-84
2023/08/03 05:28:38;;;;;;;6.03;2.55;;;16.60;99.90;;;;;;5092175;27;20047;-84
2023/08/03 05:31:07;;;;;;;6.28;2.50;;;16.60;99.90;;;;;;5101647;27;20039;-84
2023/08/03 05:33:36;;;;;;;4.32;2.55;;;16.60;99.90;;;;;;5111230;27;20042;-85
2023/08/03 05:36:02;;;;;;;3.50;2.63;;;16.60;99.90;;;;;;5092551;27;20486;-85
2023/08/03 05:38:28;;;;;;;6.80;2.67;;;16.60;99.90;;;;;;5109062;27;20837;-84
2023/08/03 05:40:54;;;;;;;3.08;2.58;;;16.60;99.90;;;;;;5105327;27;20063;-84
2023/08/03 05:43:24;;;;;;;4.70;2.55;;;16.60;99.90;;;;;;5098191;27;20031;-84
2023/08/03 05:45:56;;;;;;;8.70;2.75;;;16.60;99.90;;;;;;5093890;27;20047;-84
2023/08/03 05:48:22;;;;;;;4.43;2.58;;;16.60;99.90;;;;;;5092068;27;20041;-84
2023/08/03 05:50:49;;;;;;;5.75;3.05;;;16.60;99.90;;;;;;5086908;27;20035;-84
2023/08/03 05:53:16;;;;;;;5.30;3.08;;;16.70;99.90;;;;;;5088188;27;20517;-85
2023/08/03 05:55:42;;;;;;;6.95;3.20;;;16.80;99.90;;;;;;5099191;27;20178;-84
2023/08/03 05:58:11;;;;;;;6.60;3.40;;;16.70;99.90;;;;;;5091489;27;20038;-84
2023/08/03 06:00:37;;;;;;;7.78;3.47;;;16.90;99.90;;;;;;5104643;27;20056;-84
2023/08/03 06:03:03;;;;;;;7.50;3.58;;;16.90;99.90;;;;;;5100330;27;20121;-84
2023/08/03 06:05:38;;;;;;;6.20;3.05;;;17.00;99.90;;;;;;5107155;27;20576;-85
2023/08/03 06:08:25;;;;;;;6.30;2.88;;;17.00;99.90;;;;;;5102158;27;20084;-84
2023/08/03 06:10:55;;;;;;;8.38;2.90;;;17.10;99.90;;;;;;5092913;27;20459;-85
2023/08/03 06:13:35;;;;;;;7.78;3.22;;;17.20;99.90;;;;;;5116502;27;20031;-84
2023/08/03 06:16:10;;;;;;;4.28;3.17;;;17.30;99.90;;;;;;5107712;27;20062;-84
2023/08/03 06:19:16;;;;;;;7.22;3.17;;;17.40;99.90;;;;;;5099504;27;20145;-84
2023/08/03 06:21:43;;;;;;;6.28;3.70;;;17.50;99.90;;;;;;5083049;27;20047;-85
2023/08/03 06:24:22;;;;;;;5.75;3.35;;;17.40;99.90;;;;;;5119047;27;20043;-84
2023/08/03 06:26:50;;;;;;;7.05;3.60;;;17.60;99.90;;;;;;5116787;27;20068;-84
2023/08/03 06:29:17;;;;;;;7.22;3.28;;;17.60;99.90;;;;;;5125086;27;20035;-84
2023/08/03 06:31:42;;;;;;;11.68;3.67;;;17.60;99.90;;;;;;5097969;27;20181;-84
2023/08/03 06:34:14;;;;;;;5.47;3.30;;;17.60;99.90;;;;;;5098296;27;20047;-84
2023/08/03 06:36:42;;;;;;;4.60;2.97;;;17.60;99.90;;;;;;5114584;27;20043;-82
2023/08/03 06:39:11;;;;;;;5.03;3.35;;;17.70;99.90;;;;;;5094001;27;20596;-83
2023/08/03 06:41:36;;;;;;;5.38;3.08;;;17.70;99.90;;;;;;5090805;27;20306;-84
2023/08/03 06:44:02;;;;;;;5.25;3.13;;;17.60;99.90;;;;;;5105235;27;20058;-84
2023/08/03 06:46:31;;;;;;;7.72;3.42;;;17.60;99.90;;;;;;5106221;27;20146;-84
2023/08/03 06:48:57;;;;;;;4.55;2.70;;;17.80;99.90;;;;;;5108022;27;20043;-83
2023/08/03 06:51:23;;;;;;;5.55;2.38;;;17.80;99.90;;;;;;5114038;27;20038;-84
2023/08/03 06:53:49;;;;;;;2.80;2.20;;;17.80;99.90;;;;;;5093546;27;20039;-84
2023/08/03 06:56:15;;;;;;;4.45;2.13;;;17.70;99.90;;;;;;5109284;27;20092;-83
2023/08/03 06:58:41;;;;;;;4.25;2.30;;;17.60;99.90;;;;;;5093646;27;20038;-84
2023/08/03 07:01:07;;;;;;;3.72;2.00;;;17.60;99.90;;;;;;5107040;27;20453;-84
2023/08/03 07:03:33;;;;;;;4.43;2.03;;;17.80;99.90;;;;;;5110787;27;20451;-83
2023/08/03 07:05:59;;;;;;;3.38;2.05;;;17.80;99.90;;;;;;5094127;27;20476;-83
2023/08/03 07:08:24;;;;;;;2.47;1.98;;;18.10;99.90;;;;;;5102801;27;20090;-84
2023/08/03 07:10:50;;;;;;;3.80;1.80;;;18.10;99.90;;;;;;5113044;27;20434;-83
2023/08/03 07:13:15;;;;;;;3.88;1.80;;;18.00;99.90;;;;;;5098362;27;20038;-84
2023/08/03 07:15:41;;;;;;;2.88;2.05;;;18.10;99.90;;;;;;5115472;27;20038;-83
2023/08/03 07:18:07;;;;;;;2.30;1.80;;;18.00;99.90;;;;;;5086221;27;20047;-83
2023/08/03 07:20:36;;;;;;;3.28;1.90;;;18.10;99.90;;;;;;5087841;27;20079;-83
2023/08/03 07:23:03;;;;;;;3.10;1.77;;;18.30;99.90;;;;;;5080343;27;20135;-83
2023/08/03 07:25:31;;;;;;;3.30;2.20;;;18.50;99.90;;;;;;5098095;27;20314;-83
2023/08/03 07:27:57;;;;;;;2.05;1.65;;;18.60;99.90;;;;;;5129106;27;20153;-84
2023/08/03 07:30:22;;;;;;;3.53;2.00;;;18.50;99.90;;;;;;5087658;27;20545;-83
2023/08/03 07:32:48;;;;;;;2.83;1.50;;;18.40;99.90;;;;;;5111767;27;20035;-83
2023/08/03 07:35:14;;;;;;;2.63;1.77;;;18.30;99.90;;;;;;5107546;27;20088;-84
2023/08/03 07:37:39;;;;;;;3.40;1.90;;;18.30;99.90;;;;;;5081817;27;20046;-82
2023/08/03 07:40:07;;;;;;;3.10;1.70;;;18.40;99.90;;;;;;5103650;27;20082;-83
2023/08/03 07:42:32;;;;;;;2.58;1.60;;;18.50;99.90;;;;;;5106566;27;20190;-83
2023/08/03 07:44:58;;;;;;;5.55;1.70;;;18.50;99.90;;;;;;5108218;27;20052;-83
2023/08/03 07:47:24;;;;;;;3.88;1.40;;;18.70;99.90;;;;;;5094590;27;20340;-83
2023/08/03 07:49:55;;;;;;;3.65;1.73;;;18.90;99.90;;;;;;5092594;27;20039;-83
2023/08/03 07:52:20;;;;;;;2.78;1.38;;;19.10;99.90;;;;;;5101370;27;20043;-83
2023/08/03 07:54:46;;;;;;;3.45;1.25;;;19.10;99.90;;;;;;5102207;27;20038;-83
2023/08/03 07:57:15;;;;;;;3.38;1.38;;;19.00;99.90;;;;;;5083714;27;20461;-83
2023/08/03 07:59:50;;;;;;;2.75;1.65;;;19.10;99.90;;;;;;5097930;27;20308;-83
2023/08/03 08:02:19;;;;;;;1.83;1.08;;;19.20;99.90;;;;;;5098951;27;20063;-83
2023/08/03 08:04:49;;;;;;;2.60;1.33;;;19.30;99.90;;;;;;5088016;27;20081;-82
2023/08/03 08:07:15;;;;;;;3.22;1.10;;;19.50;99.90;;;;;;5092718;27;20028;-83
2023/08/03 08:09:41;;;;;;;3.35;1.05;;;19.60;99.90;;;;;;5089999;27;20581;-83
2023/08/03 08:12:07;;;;;;;4.22;0.93;;;19.50;99.90;;;;;;5103240;27;20039;-84
2023/08/03 08:14:33;;;;;;;1.50;0.80;;;19.40;99.90;;;;;;5107318;27;20445;-83
2023/08/03 08:16:59;;;;;;;1.58;0.60;;;19.70;99.90;;;;;;5100216;27;20088;-83
2023/08/03 08:19:24;;;;;;;2.20;0.75;;;19.70;99.90;;;;;;5102219;27;20497;-83
2023/08/03 08:21:50;;;;;;;1.40;0.85;;;19.60;99.90;;;;;;5119677;27;20028;-83
2023/08/03 08:24:15;;;;;;;3.28;0.70;;;19.60;99.90;;;;;;5091450;28;20201;-83
2023/08/03 08:26:41;;;;;;;1.58;0.90;;;19.90;99.90;;;;;;5088608;28;20470;-83
2023/08/03 08:29:06;;;;;;;4.80;1.10;;;20.10;99.90;;;;;;5084210;28;20044;-83
2023/08/03 08:31:32;;;;;;;4.22;0.95;;;20.50;99.90;;;;;;5102116;27;20043;-83
2023/08/03 08:33:58;;;;;;;3.60;1.10;;;20.30;99.90;;;;;;5097168;27;20467;-83
2023/08/03 08:36:24;;;;;;;2.78;1.02;;;20.20;99.90;;;;;;5077951;28;20082;-83
2023/08/03 08:38:50;;;;;;;3.03;1.08;;;20.10;99.90;;;;;;5104753;27;20192;-83
2023/08/03 08:41:15;;;;;;;1.50;0.90;;;20.30;99.90;;;;;;5086175;28;20051;-83
2023/08/03 08:43:41;;;;;;;3.25;0.80;;;20.20;99.90;;;;;;5105012;28;20051;-83
2023/08/03 08:46:06;;;;;;;1.70;0.77;;;20.20;99.90;;;;;;5079542;28;20035;-83
2023/08/03 08:48:35;;;;;;;1.98;1.00;;;20.30;99.90;;;;;;5104477;27;20043;-83
2023/08/03 08:51:03;;;;;;;4.57;1.15;;;20.60;99.90;;;;;;5089940;27;20111;-83
2023/08/03 08:53:29;;;;;;;2.87;1.03;;;20.90;99.90;;;;;;5083945;27;20565;-83
2023/08/03 08:55:55;;;;;;;1.45;0.80;;;20.90;99.90;;;;;;5105814;27;20240;-83
2023/08/03 08:58:20;;;;;;;4.28;0.90;;;20.90;99.90;;;;;;5107845;27;20047;-83
2023/08/03 09:00:47;;;;;;;3.17;1.00;;;20.90;99.90;;;;;;5105087;27;20550;-83
2023/08/03 09:03:14;;;;;;;2.65;1.00;;;20.80;99.90;;;;;;5086422;27;20127;-83
2023/08/03 09:05:39;;;;;;;3.13;0.82;;;20.60;99.90;;;;;;5096697;27;20491;-83
2023/08/03 09:08:11;;;;;;;4.95;1.23;;;20.40;99.90;;;;;;5099052;27;20038;-83
2023/08/03 09:10:50;;;;;;;2.00;0.88;;;20.40;99.90;;;;;;5088184;27;20388;-83
2023/08/03 09:13:31;;;;;;;3.05;0.80;;;21.00;99.90;;;;;;5088613;27;20174;-83
2023/08/03 09:15:57;;;;;;;2.03;0.80;;;21.50;99.90;;;;;;5113686;27;20081;-84
2023/08/03 09:18:26;;;;;;;3.10;0.70;;;21.60;99.90;;;;;;5102637;27;20043;-83
2023/08/03 09:21:14;;;;;;;2.85;0.80;;;21.70;99.90;;;;;;5087099;27;20043;-83
2023/08/03 09:23:40;;;;;;;2.33;1.00;;;21.70;99.90;;;;;;5109336;27;20329;-84
2023/08/03 09:26:07;;;;;;;1.95;0.90;;;21.30;99.90;;;;;;5108106;27;20132;-84
2023/08/03 09:28:38;;;;;;;3.05;1.23;;;21.30;99.90;;;;;;5087658;27;20052;-83
2023/08/03 09:31:04;;;;;;;2.60;1.00;;;21.50;99.90;;;;;;5104949;27;20046;-83
2023/08/03 09:33:31;;;;;;;2.33;0.80;;;21.40;99.90;;;;;;5087625;27;20062;-84
2023/08/03 09:36:11;;;;;;;3.65;1.00;;;21.50;99.90;;;;;;5107268;27;20038;-83
2023/08/03 09:38:41;;;;;;;2.38;0.90;;;21.20;99.90;;;;;;5103689;27;20112;-83
2023/08/03 09:41:08;;;;;;;4.63;1.40;;;21.10;99.90;;;;;;5092498;27;20032;-83
2023/08/03 09:43:34;;;;;;;3.33;1.10;;;21.10;99.90;;;;;;5092302;27;20418;-83
2023/08/03 09:46:01;;;;;;;3.75;1.20;;;21.10;99.90;;;;;;5092634;27;20031;-83
2023/08/03 09:48:27;;;;;;;3.67;1.00;;;20.80;99.90;;;;;;5113191;27;20576;-84
2023/08/03 09:50:55;;;;;;;5.40;1.38;;;20.80;99.90;;;;;;5093388;27;20038;-84
2023/08/03 09:53:25;;;;;;;3.00;1.40;;;20.70;99.90;;;;;;5096111;27;20027;-83
2023/08/03 09:55:58;;;;;;;2.80;1.10;;;20.50;99.90;;;;;;5091852;27;20070;-83
2023/08/03 09:58:48;;;;;;;4.68;1.40;;;20.30;99.90;;;;;;5107634;27;20094;-83
2023/08/03 10:01:21;;;;;;;3.55;1.50;;;20.60;99.90;;;;;;5121590;27;20110;-83
2023/08/03 10:03:52;;;;;;;3.00;1.40;;;21.00;99.90;;;;;;5110445;27;20035;-83
2023/08/03 10:06:19;;;;;;;5.25;1.48;;;21.30;99.90;;;;;;5103694;27;20042;-83
2023/08/03 10:09:04;;;;;;;1.63;1.10;;;21.70;99.90;;;;;;5099147;27;20054;-83
2023/08/03 10:11:42;;;;;;;3.80;1.40;;;21.80;99.90;;;;;;5083500;27;20122;-83
2023/08/03 10:14:09;;;;;;;2.67;1.15;;;21.90;99.90;;;;;;5105327;27;20047;-83
2023/08/03 10:16:36;;;;;;;4.57;1.33;;;22.30;99.90;;;;;;5121506;27;20824;-84
2023/08/03 10:19:03;;;;;;;4.82;1.38;;;22.60;99.90;;;;;;5093632;27;20431;-84
2023/08/03 10:21:30;;;;;;;7.70;1.50;;;23.00;99.90;;;;;;5105785;27;20050;-84
2023/08/03 10:24:18;;;;;;;4.85;1.40;;;22.50;99.90;;;;;;5088858;27;20042;-83
2023/08/03 10:26:54;;;;;;;3.55;1.13;;;21.80;99.90;;;;;;5102480;27;20042;-84
2023/08/03 10:29:51;;;;;;;3.40;1.80;;;21.70;99.90;;;;;;5096507;27;20486;-83
2023/08/03 10:32:22;;;;;;;3.33;0.95;;;21.50;99.90;;;;;;5101135;27;20129;-83
2023/08/03 10:34:51;;;;;;;4.43;1.38;;;22.40;99.90;;;;;;5108419;27;20054;-84
2023/08/03 10:37:16;;;;;;;5.78;1.60;;;22.20;99.90;;;;;;5091940;27;20042;-84
2023/08/03 10:40:01;;;;;;;3.58;1.13;;;22.50;99.90;;;;;;5120317;27;20035;-84
2023/08/03 10:42:32;;;;;;;3.93;1.13;;;22.80;99.90;;;;;;5106594;27;20047;-83
2023/08/03 10:45:20;;;;;;;6.43;1.95;;;22.70;99.90;;;;;;5092327;27;20063;-84
2023/08/03 10:47:45;;;;;;;4.55;1.75;;;22.80;99.90;;;;;;5107090;27;20046;-82
2023/08/03 10:50:11;;;;;;;4.65;1.30;;;23.20;99.90;;;;;;5102698;27;20466;-82
2023/08/03 10:52:37;;;;;;;2.67;1.00;;;23.20;99.90;;;;;;5097368;27;20342;-82
2023/08/03 10:55:24;;;;;;;2.75;1.10;;;23.20;99.90;;;;;;5099458;27;20078;-82
2023/08/03 10:57:50;;;;;;;3.33;1.10;;;23.30;99.90;;;;;;5130538;27;20039;-82
2023/08/03 11:00:16;;;;;;;3.05;1.27;;;23.70;99.90;;;;;;5087820;27;20032;-82
2023/08/03 11:02:42;;;;;;;3.00;1.20;;;23.30;99.90;;;;;;5107818;27;20057;-82
2023/08/03 11:05:11;;;;;;;4.70;1.38;;;22.60;99.90;;;;;;5101264;27;20047;-82
2023/08/03 11:07:39;;;;;;;7.90;1.50;;;22.20;99.90;;;;;;5087103;27;20081;-82
2023/08/03 11:10:09;;;;;;;3.80;1.40;;;22.10;99.90;;;;;;5107143;27;20075;-81
2023/08/03 11:12:35;;;;;;;4.65;1.50;;;22.20;99.90;;;;;;5111723;27;20042;-81
2023/08/03 11:15:07;;;;;;;2.72;1.30;;;22.40;99.90;;;;;;5099918;27;20054;-82
2023/08/03 11:17:36;;;;;;;3.17;1.35;;;22.70;99.90;;;;;;5089242;27;20043;-82
2023/08/03 11:20:04;;;;;;;2.95;1.35;;;22.90;99.90;;;;;;5119968;27;20063;-82
2023/08/03 11:22:31;;;;;;;10.02;1.10;;;22.70;99.90;;;;;;5093695;27;20035;-82
2023/08/03 11:25:00;;;;;;;4.32;0.82;;;22.70;99.90;;;;;;5122323;27;20039;-82
2023/08/03 11:27:26;;;;;;;4.00;1.10;;;22.00;99.90;;;;;;5093650;27;20096;-82
2023/08/03 11:29:53;;;;;;;2.38;1.25;;;21.80;99.90;;;;;;5122651;27;20036;-81
2023/08/03 11:32:27;;;;;;;2.72;1.00;;;21.60;99.90;;;;;;5106211;27;20401;-82
2023/08/03 11:35:03;;;;;;;2.45;0.80;;;21.40;99.90;;;;;;5107199;27;20150;-82
2023/08/03 11:37:30;;;;;;;3.65;0.88;;;21.50;99.90;;;;;;5130101;27;20121;-82
2023/08/03 11:39:56;;;;;;;1.75;0.90;;;21.40;99.90;;;;;;5101756;27;20052;-82
2023/08/03 11:42:22;;;;;;;4.20;0.90;;;21.30;99.90;;;;;;5106670;27;20179;-82
2023/08/03 11:44:48;;;;;;;3.78;0.75;;;21.20;99.90;;;;;;5101972;27;20409;-82
2023/08/03 11:47:14;;;;;;;4.75;0.60;;;21.10;99.90;;;;;;5094353;27;20050;-82
2023/08/03 11:49:40;;;;;;;2.03;1.00;;;22.00;99.90;;;;;;5126971;27;20438;-81
2023/08/03 11:52:06;;;;;;;3.75;1.02;;;22.60;99.90;;;;;;5116154;27;20149;-81
2023/08/03 11:54:34;;;;;;;2.85;0.63;;;23.00;99.90;;;;;;5118518;27;20043;-82
2023/08/03 11:59:48;;;;;;;;;;;22.00;99.90;;;;;;5109829;27;20076;-82
2023/08/03 12:02:14;;;;;;;2.72;0.80;;;21.70;99.90;;;;;;5103028;27;19938;-82
2023/08/03 12:04:41;;;;;;;1.67;1.00;;;21.20;99.90;;;;;;5099064;27;20043;-82
2023/08/03 12:07:07;;;;;;;2.10;0.80;;;21.00;99.90;;;;;;5102999;27;20071;-82
2023/08/03 12:09:38;;;;;;;2.47;0.68;;;22.20;99.90;;;;;;5110316;27;20069;-81
2023/08/03 12:12:06;;;;;;;1.30;0.50;;;22.60;99.90;;;;;;5140486;27;20042;-81
2023/08/03 12:14:32;;;;;;;1.55;0.70;;;22.70;99.90;;;;;;5109859;27;20047;-82
2023/08/03 12:16:57;;;;;;;2.83;0.85;;;23.00;99.90;;;;;;5112755;27;20373;-81
2023/08/03 12:19:27;;;;;;;3.58;0.90;;;22.80;99.90;;;;;;5117927;27;20050;-81
2023/08/03 12:21:53;;;;;;;2.47;0.80;;;22.30;99.90;;;;;;5096737;27;20043;-82
2023/08/03 12:24:19;;;;;;;3.25;1.10;;;22.60;99.90;;;;;;5088082;27;20039;-82
2023/08/03 12:26:45;;;;;;;3.03;0.85;;;22.90;99.90;;;;;;5124762;27;20046;-82
2023/08/03 12:29:11;;;;;;;2.00;1.10;;;23.00;99.90;;;;;;5115549;27;20303;-82
2023/08/03 12:31:36;;;;;;;1.63;0.60;;;22.40;99.90;;;;;;5113866;27;20141;-81
2023/08/03 12:34:05;;;;;;;1.40;0.80;;;22.50;99.90;;;;;;5133350;27;20504;-82
2023/08/03 12:36:31;;;;;;;3.13;1.08;;;23.10;99.90;;;;;;5102585;27;20115;-82
2023/08/03 12:38:56;;;;;;;5.32;1.77;;;23.00;99.90;;;;;;5085814;27;20478;-81
2023/08/03 12:41:22;;;;;;;3.42;1.40;;;22.00;99.90;;;;;;5133711;27;20039;-82
2023/08/03 12:43:49;;;;;;;3.55;1.50;;;21.10;99.90;;;;;;5080874;28;20045;-82
2023/08/03 12:46:17;;;;;;;5.93;1.50;;;20.60;99.90;;;;;;5079899;28;20508;-81
2023/08/03 12:48:42;;;;;;;4.80;1.73;;;20.30;99.90;;;;;;5086522;28;20126;-81
2023/08/03 12:51:09;;;;;;;6.13;1.92;;;20.60;99.90;;;;;;5097947;28;20122;-82